sensor_id;sensor_type;location;lat;lon;timestamp;pressure;altitude;pressure_sealevel;temperature;humidity
32243;BME280;18731;42.830;24.390;2023-06-04T03:00:47;94779.09;;;15.47;94.41
32243;BME280;18731;42.830;24.390;2023-06-04T03:03:13;94767.47;;;15.42;94.13
32243;BME280;18731;42.830;24.390;2023-06-04T03:05:38;94775.69;;;15.50;94.48
32243;BME280;18731;42.830;24.390;2023-06-04T03:08:05;94783.13;;;15.56;94.44
32243;BME280;18731;42.830;24.390;2023-06-04T03:10:31;94765.63;;;15.47;94.34
32243;BME280;18731;42.830;24.390;2023-06-04T03:12:57;94778.38;;;15.50;94.07
32243;BME280;18731;42.830;24.390;2023-06-04T03:15:23;94772.22;;;15.49;93.71
32243;BME280;18731;42.830;24.390;2023-06-04T03:17:48;94775.25;;;15.48;93.07
32243;BME280;18731;42.830;24.390;2023-06-04T03:20:14;94780.28;;;15.49;93.50
32243;BME280;18731;42.830;24.390;2023-06-04T03:22:40;94789.22;;;15.53;94.07
32243;BME280;18731;42.830;24.390;2023-06-04T03:25:06;94789.75;;;15.59;94.29
32243;BME280;18731;42.830;24.390;2023-06-04T03:27:32;94763.06;;;15.34;94.39
32243;BME280;18731;42.830;24.390;2023-06-04T03:29:58;94799.50;;;15.63;94.44
32243;BME280;18731;42.830;24.390;2023-06-04T03:32:24;94798.00;;;15.66;94.42
32243;BME280;18731;42.830;24.390;2023-06-04T03:34:50;94796.44;;;15.65;94.77
32243;BME280;18731;42.830;24.390;2023-06-04T03:37:17;94804.25;;;15.70;95.21
32243;BME280;18731;42.830;24.390;2023-06-04T03:39:43;94793.75;;;15.65;95.00
32243;BME280;18731;42.830;24.390;2023-06-04T03:42:09;94795.59;;;15.61;95.30
32243;BME280;18731;42.830;24.390;2023-06-04T03:44:35;94804.53;;;15.65;95.24
32243;BME280;18731;42.830;24.390;2023-06-04T03:47:01;94693.50;;;14.98;95.18
32243;BME280;18731;42.830;24.390;2023-06-04T03:49:26;94772.50;;;15.44;95.66
32243;BME280;18731;42.830;24.390;2023-06-04T03:51:52;94815.09;;;15.73;95.85
32243;BME280;18731;42.830;24.390;2023-06-04T03:54:18;94821.69;;;15.76;96.02
32243;BME280;18731;42.830;24.390;2023-06-04T03:56:44;94814.66;;;15.71;96.23
32243;BME280;18731;42.830;24.390;2023-06-04T03:59:10;94815.00;;;15.70;96.67
32243;BME280;18731;42.830;24.390;2023-06-04T04:01:36;94822.66;;;15.68;97.18
32243;BME280;18731;42.830;24.390;2023-06-04T04:04:02;94816.13;;;15.69;97.29
32243;BME280;18731;42.830;24.390;2023-06-04T04:06:27;94820.22;;;15.63;97.48
32243;BME280;18731;42.830;24.390;2023-06-04T04:08:53;94810.59;;;15.62;97.25
32243;BME280;18731;42.830;24.390;2023-06-04T04:11:18;94829.59;;;15.69;97.24
32243;BME280;18731;42.830;24.390;2023-06-04T04:13:45;94825.00;;;15.69;97.10
32243;BME280;18731;42.830;24.390;2023-06-04T04:16:11;94842.06;;;15.77;97.03
32243;BME280;18731;42.830;24.390;2023-06-04T04:18:37;94837.03;;;15.75;96.92
32243;BME280;18731;42.830;24.390;2023-06-04T04:21:04;94838.94;;;15.75;96.82
32243;BME280;18731;42.830;24.390;2023-06-04T04:23:30;94846.75;;;15.80;96.82
32243;BME280;18731;42.830;24.390;2023-06-04T04:25:58;94847.59;;;15.84;96.31
32243;BME280;18731;42.830;24.390;2023-06-04T04:28:25;94842.81;;;15.93;96.32
32243;BME280;18731;42.830;24.390;2023-06-04T04:30:56;94839.41;;;15.96;95.95
32243;BME280;18731;42.830;24.390;2023-06-04T04:33:23;94798.84;;;15.70;95.50
32243;BME280;18731;42.830;24.390;2023-06-04T04:35:52;94850.41;;;16.07;95.13
32243;BME280;18731;42.830;24.390;2023-06-04T04:38:21;94853.50;;;16.09;94.86
32243;BME280;18731;42.830;24.390;2023-06-04T04:40:49;94855.44;;;16.08;95.10
32243;BME280;18731;42.830;24.390;2023-06-04T04:45:56;94849.91;;;16.21;94.62
32243;BME280;18731;42.830;24.390;2023-06-04T04:48:22;94855.72;;;16.23;93.51
32243;BME280;18731;42.830;24.390;2023-06-04T04:50:47;94794.56;;;15.85;93.42
32243;BME280;18731;42.830;24.390;2023-06-04T04:53:13;94839.19;;;16.24;93.54
32243;BME280;18731;42.830;24.390;2023-06-04T04:55:38;94852.88;;;16.35;93.41
32243;BME280;18731;42.830;24.390;2023-06-04T04:58:04;94854.88;;;16.38;92.85
32243;BME280;18731;42.830;24.390;2023-06-04T05:00:30;94834.72;;;16.32;92.44
32243;BME280;18731;42.830;24.390;2023-06-04T05:02:55;94755.38;;;15.87;91.93
32243;BME280;18731;42.830;24.390;2023-06-04T05:05:21;94851.00;;;16.58;92.85
32243;BME280;18731;42.830;24.390;2023-06-04T05:07:47;94851.97;;;16.66;92.91
32243;BME280;18731;42.830;24.390;2023-06-04T05:10:12;94853.28;;;16.76;92.42
32243;BME280;18731;42.830;24.390;2023-06-04T05:12:38;94863.06;;;16.84;91.67
32243;BME280;18731;42.830;24.390;2023-06-04T05:15:05;94849.16;;;16.82;90.80
32243;BME280;18731;42.830;24.390;2023-06-04T05:17:30;94861.22;;;16.88;90.88
32243;BME280;18731;42.830;24.390;2023-06-04T05:19:56;94852.41;;;16.91;91.47
32243;BME280;18731;42.830;24.390;2023-06-04T05:22:28;94866.91;;;17.06;92.08
32243;BME280;18731;42.830;24.390;2023-06-04T05:24:54;94875.47;;;17.11;91.65
32243;BME280;18731;42.830;24.390;2023-06-04T05:27:21;94865.53;;;17.15;89.04
32243;BME280;18731;42.830;24.390;2023-06-04T05:29:47;94854.75;;;17.15;87.58
32243;BME280;18731;42.830;24.390;2023-06-04T05:32:13;94868.47;;;17.29;88.08
32243;BME280;18731;42.830;24.390;2023-06-04T05:34:39;94840.94;;;17.20;87.95
32243;BME280;18731;42.830;24.390;2023-06-04T05:37:05;94867.00;;;17.35;88.29
32243;BME280;18731;42.830;24.390;2023-06-04T05:39:33;94868.22;;;17.38;87.15
32243;BME280;18731;42.830;24.390;2023-06-04T05:42:01;94868.69;;;17.44;87.04
32243;BME280;18731;42.830;24.390;2023-06-04T05:44:27;94866.47;;;17.49;86.23
32243;BME280;18731;42.830;24.390;2023-06-04T05:46:52;94874.34;;;17.61;85.87
32243;BME280;18731;42.830;24.390;2023-06-04T05:49:18;94875.13;;;17.62;85.31
32243;BME280;18731;42.830;24.390;2023-06-04T05:51:45;94868.59;;;17.63;83.43
32243;BME280;18731;42.830;24.390;2023-06-04T05:54:10;94876.00;;;17.66;84.21
32243;BME280;18731;42.830;24.390;2023-06-04T05:56:36;94877.88;;;17.65;84.50
32243;BME280;18731;42.830;24.390;2023-06-04T05:59:02;94859.91;;;17.50;83.99
32243;BME280;18731;42.830;24.390;2023-06-04T06:01:27;94881.81;;;17.68;83.05
32243;BME280;18731;42.830;24.390;2023-06-04T06:03:54;94885.66;;;17.67;82.85
32243;BME280;18731;42.830;24.390;2023-06-04T06:06:23;94884.94;;;17.70;83.06
32243;BME280;18731;42.830;24.390;2023-06-04T06:08:49;94878.13;;;17.57;82.75
32243;BME280;18731;42.830;24.390;2023-06-04T06:11:15;94881.88;;;17.72;82.79
32243;BME280;18731;42.830;24.390;2023-06-04T06:13:40;94870.47;;;17.59;82.54
32243;BME280;18731;42.830;24.390;2023-06-04T06:16:06;94887.25;;;17.72;83.40
32243;BME280;18731;42.830;24.390;2023-06-04T06:18:32;94877.56;;;17.67;82.63
32243;BME280;18731;42.830;24.390;2023-06-04T06:20:58;94891.69;;;17.83;83.54
32243;BME280;18731;42.830;24.390;2023-06-04T06:23:23;94888.97;;;17.83;85.26
32243;BME280;18731;42.830;24.390;2023-06-04T06:25:50;94895.72;;;17.96;84.80
32243;BME280;18731;42.830;24.390;2023-06-04T06:28:18;94900.81;;;18.02;83.52
32243;BME280;18731;42.830;24.390;2023-06-04T06:30:44;94902.47;;;18.10;84.54
32243;BME280;18731;42.830;24.390;2023-06-04T06:33:10;94899.84;;;18.17;84.98
32243;BME280;18731;42.830;24.390;2023-06-04T06:35:35;94896.44;;;18.20;85.07
32243;BME280;18731;42.830;24.390;2023-06-04T06:38:01;94905.81;;;18.26;84.32
32243;BME280;18731;42.830;24.390;2023-06-04T06:40:27;94907.72;;;18.25;83.96
32243;BME280;18731;42.830;24.390;2023-06-04T06:42:55;94902.78;;;18.31;84.34
32243;BME280;18731;42.830;24.390;2023-06-04T06:45:21;94909.00;;;18.35;84.76
32243;BME280;18731;42.830;24.390;2023-06-04T06:47:47;94896.66;;;18.34;83.56
32243;BME280;18731;42.830;24.390;2023-06-04T06:50:12;94906.41;;;18.42;82.43
32243;BME280;18731;42.830;24.390;2023-06-04T06:52:38;94907.59;;;18.45;82.03
32243;BME280;18731;42.830;24.390;2023-06-04T06:55:04;94904.50;;;18.46;81.27
32243;BME280;18731;42.830;24.390;2023-06-04T06:57:30;94909.91;;;18.46;81.49
32243;BME280;18731;42.830;24.390;2023-06-04T06:59:56;94910.00;;;18.53;82.14
32243;BME280;18731;42.830;24.390;2023-06-04T07:02:22;94898.41;;;18.53;81.34
32243;BME280;18731;42.830;24.390;2023-06-04T07:04:49;94891.81;;;18.50;79.38
32243;BME280;18731;42.830;24.390;2023-06-04T07:07:15;94874.81;;;18.20;80.35
32243;BME280;18731;42.830;24.390;2023-06-04T07:09:40;94909.84;;;18.39;80.02
32243;BME280;18731;42.830;24.390;2023-06-04T07:12:06;94908.56;;;18.29;81.77
32243;BME280;18731;42.830;24.390;2023-06-04T07:14:32;94904.59;;;18.23;81.37
32243;BME280;18731;42.830;24.390;2023-06-04T07:16:57;94908.91;;;18.28;83.20
32243;BME280;18731;42.830;24.390;2023-06-04T07:19:23;94914.13;;;18.44;83.16
32243;BME280;18731;42.830;24.390;2023-06-04T07:21:50;94846.44;;;18.03;82.76
32243;BME280;18731;42.830;24.390;2023-06-04T07:24:17;94906.06;;;18.47;83.23
32243;BME280;18731;42.830;24.390;2023-06-04T07:26:42;94913.81;;;18.49;81.86
32243;BME280;18731;42.830;24.390;2023-06-04T07:29:08;94905.28;;;18.47;81.57
32243;BME280;18731;42.830;24.390;2023-06-04T07:31:34;94923.19;;;18.58;81.02
32243;BME280;18731;42.830;24.390;2023-06-04T07:34:00;94921.34;;;18.62;80.26
32243;BME280;18731;42.830;24.390;2023-06-04T07:36:25;94919.34;;;18.59;78.66
32243;BME280;18731;42.830;24.390;2023-06-04T07:38:51;94927.97;;;18.69;78.64
32243;BME280;18731;42.830;24.390;2023-06-04T07:41:17;94929.94;;;18.72;78.65
32243;BME280;18731;42.830;24.390;2023-06-04T07:43:43;94930.38;;;18.74;79.85
32243;BME280;18731;42.830;24.390;2023-06-04T07:46:09;94941.09;;;18.67;77.49
32243;BME280;18731;42.830;24.390;2023-06-04T07:48:35;94926.75;;;18.62;78.58
32243;BME280;18731;42.830;24.390;2023-06-04T07:51:02;94924.06;;;18.62;76.75
32243;BME280;18731;42.830;24.390;2023-06-04T07:53:30;94917.09;;;18.61;76.67
32243;BME280;18731;42.830;24.390;2023-06-04T07:55:57;94938.16;;;18.79;79.28
32243;BME280;18731;42.830;24.390;2023-06-04T07:58:23;94948.78;;;18.98;77.54
32243;BME280;18731;42.830;24.390;2023-06-04T08:00:49;94936.81;;;18.99;77.05
32243;BME280;18731;42.830;24.390;2023-06-04T08:03:15;94953.13;;;19.06;77.42
32243;BME280;18731;42.830;24.390;2023-06-04T08:05:41;94957.13;;;19.19;75.74
32243;BME280;18731;42.830;24.390;2023-06-04T08:08:07;94943.34;;;19.32;76.90
32243;BME280;18731;42.830;24.390;2023-06-04T08:10:35;94929.50;;;19.40;75.90
32243;BME280;18731;42.830;24.390;2023-06-04T08:13:03;94939.97;;;19.42;75.30
32243;BME280;18731;42.830;24.390;2023-06-04T08:15:28;94941.03;;;19.34;74.29
32243;BME280;18731;42.830;24.390;2023-06-04T08:20:48;94966.28;;;19.45;77.00
32243;BME280;18731;42.830;24.390;2023-06-04T08:23:13;94955.13;;;19.50;76.13
32243;BME280;18731;42.830;24.390;2023-06-04T08:25:39;94946.59;;;19.48;76.42
32243;BME280;18731;42.830;24.390;2023-06-04T08:28:04;94960.31;;;19.66;74.96
32243;BME280;18731;42.830;24.390;2023-06-04T08:30:30;94943.97;;;19.55;75.75
32243;BME280;18731;42.830;24.390;2023-06-04T08:32:56;94964.66;;;19.77;77.28
32243;BME280;18731;42.830;24.390;2023-06-04T08:35:21;94961.88;;;19.67;75.95
32243;BME280;18731;42.830;24.390;2023-06-04T08:37:47;94953.31;;;19.61;74.86
32243;BME280;18731;42.830;24.390;2023-06-04T08:40:13;94945.91;;;19.54;73.92
32243;BME280;18731;42.830;24.390;2023-06-04T08:42:42;94958.00;;;19.68;76.03
32243;BME280;18731;42.830;24.390;2023-06-04T08:45:11;94912.88;;;19.42;76.77
32243;BME280;18731;42.830;24.390;2023-06-04T08:47:50;94942.66;;;19.82;75.95
32243;BME280;18731;42.830;24.390;2023-06-04T08:50:22;94950.09;;;19.96;73.72
32243;BME280;18731;42.830;24.390;2023-06-04T08:52:52;94962.97;;;20.10;72.17
32243;BME280;18731;42.830;24.390;2023-06-04T08:55:19;94951.75;;;20.11;72.12
32243;BME280;18731;42.830;24.390;2023-06-04T08:57:45;94963.88;;;20.28;71.10
32243;BME280;18731;42.830;24.390;2023-06-04T09:00:11;94965.03;;;20.31;71.98
32243;BME280;18731;42.830;24.390;2023-06-04T09:02:38;94960.03;;;20.36;71.37
32243;BME280;18731;42.830;24.390;2023-06-04T09:05:05;94953.91;;;20.39;69.83
32243;BME280;18731;42.830;24.390;2023-06-04T09:07:39;94966.72;;;20.49;72.44
32243;BME280;18731;42.830;24.390;2023-06-04T09:10:07;94960.50;;;20.42;69.64
32243;BME280;18731;42.830;24.390;2023-06-04T09:12:42;94965.00;;;20.23;70.87
32243;BME280;18731;42.830;24.390;2023-06-04T09:15:08;94919.16;;;20.01;71.81
32243;BME280;18731;42.830;24.390;2023-06-04T09:17:34;94969.72;;;20.37;71.99
32243;BME280;18731;42.830;24.390;2023-06-04T09:20:00;94965.53;;;20.43;73.79
32243;BME280;18731;42.830;24.390;2023-06-04T09:22:36;94956.25;;;20.48;76.66
32243;BME280;18731;42.830;24.390;2023-06-04T09:25:06;94973.00;;;20.61;74.49
32243;BME280;18731;42.830;24.390;2023-06-04T09:27:39;94968.31;;;20.58;75.02
32243;BME280;18731;42.830;24.390;2023-06-04T09:30:07;94964.44;;;20.55;73.28
32243;BME280;18731;42.830;24.390;2023-06-04T09:32:34;94966.78;;;20.57;74.90
32243;BME280;18731;42.830;24.390;2023-06-04T09:35:18;94969.91;;;20.66;74.38
32243;BME280;18731;42.830;24.390;2023-06-04T09:37:57;94974.16;;;20.63;74.14
32243;BME280;18731;42.830;24.390;2023-06-04T09:40:23;94924.38;;;20.31;74.55
32243;BME280;18731;42.830;24.390;2023-06-04T09:42:50;94908.03;;;20.13;74.06
32243;BME280;18731;42.830;24.390;2023-06-04T09:45:32;94982.31;;;20.63;72.90
32243;BME280;18731;42.830;24.390;2023-06-04T09:47:59;94987.66;;;20.49;73.20
32243;BME280;18731;42.830;24.390;2023-06-04T09:50:32;94980.66;;;20.44;72.64
32243;BME280;18731;42.830;24.390;2023-06-04T09:53:19;94978.09;;;20.11;71.92
32243;BME280;18731;42.830;24.390;2023-06-04T09:56:00;94977.34;;;20.17;73.90
32243;BME280;18731;42.830;24.390;2023-06-04T09:58:27;94974.19;;;20.08;70.60
32243;BME280;18731;42.830;24.390;2023-06-04T10:00:58;94975.72;;;20.06;73.45
32243;BME280;18731;42.830;24.390;2023-06-04T10:03:25;94973.06;;;20.13;75.17
32243;BME280;18731;42.830;24.390;2023-06-04T10:06:14;94968.25;;;19.88;74.79
32243;BME280;18731;42.830;24.390;2023-06-04T10:08:42;94970.78;;;19.67;75.15
32243;BME280;18731;42.830;24.390;2023-06-04T10:11:09;94972.34;;;19.72;75.79
32243;BME280;18731;42.830;24.390;2023-06-04T10:14:10;94972.09;;;19.47;75.44
32243;BME280;18731;42.830;24.390;2023-06-04T10:16:38;94960.97;;;19.15;76.64
32243;BME280;18731;42.830;24.390;2023-06-04T10:19:07;94975.03;;;18.94;77.36
32243;BME280;18731;42.830;24.390;2023-06-04T10:21:34;94952.81;;;18.78;76.45
32243;BME280;18731;42.830;24.390;2023-06-04T10:24:01;94982.78;;;18.95;76.42
32243;BME280;18731;42.830;24.390;2023-06-04T10:26:27;94981.66;;;19.00;77.50
32243;BME280;18731;42.830;24.390;2023-06-04T10:28:53;94981.00;;;19.10;76.53
32243;BME280;18731;42.830;24.390;2023-06-04T10:31:20;94978.03;;;18.85;75.35
32243;BME280;18731;42.830;24.390;2023-06-04T10:33:46;94983.94;;;18.65;75.90
32243;BME280;18731;42.830;24.390;2023-06-04T10:36:22;94986.66;;;18.38;77.23
32243;BME280;18731;42.830;24.390;2023-06-04T10:38:53;94996.84;;;18.22;79.23
32243;BME280;18731;42.830;24.390;2023-06-04T10:41:20;94994.97;;;18.03;79.38
32243;BME280;18731;42.830;24.390;2023-06-04T10:43:51;94995.53;;;17.89;79.59
32243;BME280;18731;42.830;24.390;2023-06-04T10:46:20;94986.91;;;17.80;81.01
32243;BME280;18731;42.830;24.390;2023-06-04T10:48:49;94992.25;;;17.77;80.55
32243;BME280;18731;42.830;24.390;2023-06-04T10:51:16;94990.28;;;17.74;81.62
32243;BME280;18731;42.830;24.390;2023-06-04T10:53:57;94997.53;;;17.70;81.41
32243;BME280;18731;42.830;24.390;2023-06-04T10:56:32;94975.72;;;17.59;82.11
32243;BME280;18731;42.830;24.390;2023-06-04T10:59:00;94993.38;;;17.53;80.82
32243;BME280;18731;42.830;24.390;2023-06-04T11:01:29;94979.31;;;17.44;80.97
32243;BME280;18731;42.830;24.390;2023-06-04T11:03:57;95003.13;;;17.38;81.57
32243;BME280;18731;42.830;24.390;2023-06-04T11:06:23;94990.59;;;17.07;83.34
32243;BME280;18731;42.830;24.390;2023-06-04T13:54:02;95095.22;;;16.98;90.45
32243;BME280;18731;42.830;24.390;2023-06-04T13:56:28;95109.41;;;16.95;89.70
32243;BME280;18731;42.830;24.390;2023-06-04T13:58:53;95114.81;;;16.95;90.17
32243;BME280;18731;42.830;24.390;2023-06-04T14:01:19;95103.56;;;16.74;90.89
32243;BME280;18731;42.830;24.390;2023-06-04T14:03:45;95109.09;;;16.81;91.21
32243;BME280;18731;42.830;24.390;2023-06-04T14:06:11;95108.97;;;16.93;90.49
32243;BME280;18731;42.830;24.390;2023-06-04T14:08:36;95109.25;;;16.88;90.45
32243;BME280;18731;42.830;24.390;2023-06-04T14:11:02;95099.78;;;16.78;91.39
32243;BME280;18731;42.830;24.390;2023-06-04T14:13:28;95095.34;;;16.86;90.68
32243;BME280;18731;42.830;24.390;2023-06-04T14:15:53;95096.63;;;16.92;89.90
32243;BME280;18731;42.830;24.390;2023-06-04T14:18:19;95097.47;;;16.96;89.61
32243;BME280;18731;42.830;24.390;2023-06-04T14:20:45;95087.59;;;16.84;90.17
32243;BME280;18731;42.830;24.390;2023-06-04T14:23:11;95086.13;;;16.87;89.73
32243;BME280;18731;42.830;24.390;2023-06-04T14:25:37;95094.22;;;16.87;89.82
32243;BME280;18731;42.830;24.390;2023-06-04T14:28:03;95098.38;;;16.84;89.47
32243;BME280;18731;42.830;24.390;2023-06-04T14:30:28;95100.19;;;16.96;89.81
32243;BME280;18731;42.830;24.390;2023-06-04T14:32:54;95095.50;;;16.93;88.65
32243;BME280;18731;42.830;24.390;2023-06-04T14:35:20;95088.09;;;16.90;89.00
32243;BME280;18731;42.830;24.390;2023-06-04T14:37:45;95093.66;;;16.97;87.13
32243;BME280;18731;42.830;24.390;2023-06-04T14:40:11;95091.59;;;16.90;88.73
32243;BME280;18731;42.830;24.390;2023-06-04T14:42:37;95058.00;;;16.68;87.48
32243;BME280;18731;42.830;24.390;2023-06-04T14:45:02;95088.06;;;16.70;88.25
32243;BME280;18731;42.830;24.390;2023-06-04T14:47:28;95088.78;;;16.67;88.44
32243;BME280;18731;42.830;24.390;2023-06-04T14:49:54;95081.75;;;16.47;88.70
32243;BME280;18731;42.830;24.390;2023-06-04T14:52:20;95068.97;;;16.44;90.54
32243;BME280;18731;42.830;24.390;2023-06-04T14:54:45;95074.13;;;16.33;90.58
32243;BME280;18731;42.830;24.390;2023-06-04T14:57:14;95078.22;;;16.27;90.86
32243;BME280;18731;42.830;24.390;2023-06-04T14:59:41;95059.97;;;16.21;91.25
32243;BME280;18731;42.830;24.390;2023-06-04T15:02:08;95071.63;;;16.25;92.19
32243;BME280;18731;42.830;24.390;2023-06-04T15:04:34;95069.88;;;16.17;91.81
32243;BME280;18731;42.830;24.390;2023-06-04T15:06:59;95064.06;;;16.15;91.61
32243;BME280;18731;42.830;24.390;2023-06-04T15:09:25;95069.72;;;15.94;94.08
32243;BME280;18731;42.830;24.390;2023-06-04T15:11:51;95062.50;;;15.82;94.77
32243;BME280;18731;42.830;24.390;2023-06-04T15:14:16;95056.34;;;15.66;96.05
32243;BME280;18731;42.830;24.390;2023-06-04T15:16:42;95051.22;;;15.77;94.75
32243;BME280;18731;42.830;24.390;2023-06-04T15:19:09;95050.50;;;15.64;94.78
32243;BME280;18731;42.830;24.390;2023-06-04T15:21:35;95043.31;;;15.68;95.49
32243;BME280;18731;42.830;24.390;2023-06-04T15:24:00;95049.75;;;15.79;96.06
32243;BME280;18731;42.830;24.390;2023-06-04T15:26:26;95048.34;;;15.85;96.27
32243;BME280;18731;42.830;24.390;2023-06-04T15:28:53;95051.81;;;16.01;96.60
32243;BME280;18731;42.830;24.390;2023-06-04T15:31:19;95049.66;;;16.07;97.00
32243;BME280;18731;42.830;24.390;2023-06-04T15:33:45;95052.25;;;16.19;96.88
32243;BME280;18731;42.830;24.390;2023-06-04T15:36:11;95052.94;;;16.32;94.91
32243;BME280;18731;42.830;24.390;2023-06-04T15:38:36;95053.09;;;16.39;94.98
32243;BME280;18731;42.830;24.390;2023-06-04T15:41:02;95048.91;;;16.42;93.61
32243;BME280;18731;42.830;24.390;2023-06-04T15:43:27;95017.97;;;16.35;92.72
32243;BME280;18731;42.830;24.390;2023-06-04T15:45:53;95044.09;;;16.66;91.57
32243;BME280;18731;42.830;24.390;2023-06-04T15:48:19;95058.44;;;16.70;91.42
32243;BME280;18731;42.830;24.390;2023-06-04T15:50:45;95054.03;;;16.82;91.71
32243;BME280;18731;42.830;24.390;2023-06-04T15:53:10;95044.81;;;16.83;91.07
32243;BME280;18731;42.830;24.390;2023-06-04T15:55:36;95053.91;;;16.94;90.23
32243;BME280;18731;42.830;24.390;2023-06-04T15:58:02;95060.31;;;17.05;88.76
32243;BME280;18731;42.830;24.390;2023-06-04T16:00:27;95051.44;;;17.04;87.76
32243;BME280;18731;42.830;24.390;2023-06-04T16:02:53;95051.22;;;17.13;87.58
32243;BME280;18731;42.830;24.390;2023-06-04T16:05:19;95062.00;;;17.13;87.76
32243;BME280;18731;42.830;24.390;2023-06-04T16:07:46;95056.03;;;17.23;88.88
32243;BME280;18731;42.830;24.390;2023-06-04T16:10:11;95037.59;;;17.06;87.16
32243;BME280;18731;42.830;24.390;2023-06-04T16:12:37;95052.78;;;17.14;87.59
32243;BME280;18731;42.830;24.390;2023-06-04T16:15:03;95057.47;;;17.17;87.16
32243;BME280;18731;42.830;24.390;2023-06-04T16:17:28;95047.53;;;17.21;86.31
32243;BME280;18731;42.830;24.390;2023-06-04T16:19:54;95040.63;;;17.24;88.60
32243;BME280;18731;42.830;24.390;2023-06-04T16:22:20;95043.72;;;17.45;89.01
32243;BME280;18731;42.830;24.390;2023-06-04T16:24:47;95042.94;;;17.45;87.80
32243;BME280;18731;42.830;24.390;2023-06-04T16:27:13;95051.00;;;17.64;86.13
32243;BME280;18731;42.830;24.390;2023-06-04T16:29:39;95041.66;;;17.58;85.62
32243;BME280;18731;42.830;24.390;2023-06-04T16:32:05;95048.13;;;17.53;85.48
32243;BME280;18731;42.830;24.390;2023-06-04T16:34:31;95053.81;;;17.48;85.92
32243;BME280;18731;42.830;24.390;2023-06-04T16:36:57;95044.66;;;17.33;86.85
32243;BME280;18731;42.830;24.390;2023-06-04T16:39:23;95030.78;;;17.12;87.99
32243;BME280;18731;42.830;24.390;2023-06-04T16:41:48;95039.72;;;17.16;88.29
32243;BME280;18731;42.830;24.390;2023-06-04T16:44:14;95032.13;;;16.83;88.90
32243;BME280;18731;42.830;24.390;2023-06-04T16:46:40;95029.34;;;16.80;90.65
32243;BME280;18731;42.830;24.390;2023-06-04T16:49:06;95032.13;;;16.83;89.05
32243;BME280;18731;42.830;24.390;2023-06-04T16:51:31;95033.03;;;16.71;90.27
32243;BME280;18731;42.830;24.390;2023-06-04T16:53:57;95024.44;;;16.66;90.16
32243;BME280;18731;42.830;24.390;2023-06-04T16:56:22;95025.47;;;16.61;91.83
32243;BME280;18731;42.830;24.390;2023-06-04T16:58:48;95036.09;;;16.54;93.43
32243;BME280;18731;42.830;24.390;2023-06-04T17:01:14;95029.00;;;16.46;94.16
32243;BME280;18731;42.830;24.390;2023-06-04T17:03:39;95028.50;;;16.40;94.83
32243;BME280;18731;42.830;24.390;2023-06-04T17:06:05;95026.25;;;16.27;95.75
32243;BME280;18731;42.830;24.390;2023-06-04T17:08:31;95032.00;;;16.25;96.27
32243;BME280;18731;42.830;24.390;2023-06-04T17:10:57;95031.84;;;16.18;96.57
32243;BME280;18731;42.830;24.390;2023-06-04T17:13:22;95039.47;;;16.16;96.22
32243;BME280;18731;42.830;24.390;2023-06-04T17:15:48;95044.09;;;16.16;96.69
32243;BME280;18731;42.830;24.390;2023-06-04T17:18:14;95046.19;;;16.06;97.83
32243;BME280;18731;42.830;24.390;2023-06-04T17:20:40;95028.28;;;15.98;98.22
32243;BME280;18731;42.830;24.390;2023-06-04T17:23:19;95042.53;;;15.99;98.48
32243;BME280;18731;42.830;24.390;2023-06-04T17:25:45;95038.47;;;15.89;99.07
32243;BME280;18731;42.830;24.390;2023-06-04T17:28:11;95027.34;;;15.75;99.46
32243;BME280;18731;42.830;24.390;2023-06-04T17:30:37;95031.25;;;15.78;99.64
32243;BME280;18731;42.830;24.390;2023-06-04T17:33:02;95041.59;;;15.91;99.39
32243;BME280;18731;42.830;24.390;2023-06-04T17:35:28;95034.03;;;15.97;99.47
32243;BME280;18731;42.830;24.390;2023-06-04T17:37:54;95034.09;;;16.00;99.13
32243;BME280;18731;42.830;24.390;2023-06-04T17:40:20;95023.59;;;15.95;98.86
32243;BME280;18731;42.830;24.390;2023-06-04T17:42:45;95030.28;;;16.01;97.97
32243;BME280;18731;42.830;24.390;2023-06-04T17:45:12;95023.34;;;16.00;97.54
32243;BME280;18731;42.830;24.390;2023-06-04T17:47:38;95030.63;;;16.16;97.15
32243;BME280;18731;42.830;24.390;2023-06-04T17:50:04;95026.78;;;16.17;95.91
32243;BME280;18731;42.830;24.390;2023-06-04T17:52:33;95022.97;;;16.18;95.60
32243;BME280;18731;42.830;24.390;2023-06-04T17:54:59;95026.78;;;16.17;95.50
32243;BME280;18731;42.830;24.390;2023-06-04T17:57:25;95018.28;;;16.15;95.15
32243;BME280;18731;42.830;24.390;2023-06-04T17:59:51;95017.84;;;16.13;94.78
32243;BME280;18731;42.830;24.390;2023-06-04T18:02:17;95011.53;;;16.05;94.29
32243;BME280;18731;42.830;24.390;2023-06-04T18:04:42;95012.72;;;16.07;93.62
32243;BME280;18731;42.830;24.390;2023-06-04T18:07:08;95015.69;;;16.02;93.14
32243;BME280;18731;42.830;24.390;2023-06-04T18:09:33;95011.09;;;15.87;93.49
32243;BME280;18731;42.830;24.390;2023-06-04T18:11:59;95023.88;;;15.90;93.32
32243;BME280;18731;42.830;24.390;2023-06-04T18:14:25;95025.78;;;15.90;93.70
32243;BME280;18731;42.830;24.390;2023-06-04T18:16:50;95026.91;;;15.89;93.17
32243;BME280;18731;42.830;24.390;2023-06-04T18:19:16;95030.38;;;15.89;93.54
32243;BME280;18731;42.830;24.390;2023-06-04T18:21:43;95037.69;;;15.89;93.04
32243;BME280;18731;42.830;24.390;2023-06-04T18:24:08;95040.19;;;15.66;95.57
32243;BME280;18731;42.830;24.390;2023-06-04T18:26:34;95038.72;;;15.68;95.86
32243;BME280;18731;42.830;24.390;2023-06-04T18:29:00;95051.47;;;15.71;95.95
32243;BME280;18731;42.830;24.390;2023-06-04T18:31:27;95042.88;;;15.66;96.00
32243;BME280;18731;42.830;24.390;2023-06-04T18:33:54;95056.94;;;15.75;96.15
32243;BME280;18731;42.830;24.390;2023-06-04T18:36:27;95060.06;;;15.77;96.16
32243;BME280;18731;42.830;24.390;2023-06-04T18:38:53;95049.56;;;15.72;96.58